sensor_id;sensor_type;location;lat;lon;timestamp;temperature;humidity
5429;DHT22;2737;52.386;9.980;2024-02-21T00:00:16;7.90;99.90
5429;DHT22;2737;52.386;9.980;2024-02-21T00:02:44;7.90;99.90
5429;DHT22;2737;52.386;9.980;2024-02-21T00:05:11;7.90;99.90
5429;DHT22;2737;52.386;9.980;2024-02-21T00:07:39;7.90;99.90
5429;DHT22;2737;52.386;9.980;2024-02-21T00:10:08;7.90;99.90
5429;DHT22;2737;52.386;9.980;2024-02-21T00:12:35;8.00;99.90
5429;DHT22;2737;52.386;9.980;2024-02-21T00:15:03;8.00;99.90
5429;DHT22;2737;52.386;9.980;2024-02-21T00:17:30;8.00;99.90
5429;DHT22;2737;52.386;9.980;2024-02-21T00:19:57;8.00;99.90
5429;DHT22;2737;52.386;9.980;2024-02-21T00:22:24;8.00;99.90
5429;DHT22;2737;52.386;9.980;2024-02-21T00:24:55;8.00;99.90
5429;DHT22;2737;52.386;9.980;2024-02-21T00:27:23;8.00;99.90
5429;DHT22;2737;52.386;9.980;2024-02-21T00:29:50;8.10;99.90
5429;DHT22;2737;52.386;9.980;2024-02-21T00:32:17;8.10;99.90
5429;DHT22;2737;52.386;9.980;2024-02-21T00:34:44;8.00;99.90
5429;DHT22;2737;52.386;9.980;2024-02-21T00:37:11;8.00;99.90
5429;DHT22;2737;52.386;9.980;2024-02-21T00:39:38;8.00;99.90
5429;DHT22;2737;52.386;9.980;2024-02-21T00:42:07;8.00;99.90
5429;DHT22;2737;52.386;9.980;2024-02-21T00:44:34;8.00;99.90
5429;DHT22;2737;52.386;9.980;2024-02-21T00:47:01;8.10;99.90
5429;DHT22;2737;52.386;9.980;2024-02-21T00:49:28;8.10;99.90
5429;DHT22;2737;52.386;9.980;2024-02-21T00:51:55;8.10;99.90
5429;DHT22;2737;52.386;9.980;2024-02-21T00:54:22;8.10;99.90
5429;DHT22;2737;52.386;9.980;2024-02-21T00:56:49;8.10;99.90
5429;DHT22;2737;52.386;9.980;2024-02-21T00:59:18;8.10;99.90
5429;DHT22;2737;52.386;9.980;2024-02-21T01:01:45;8.10;99.90
5429;DHT22;2737;52.386;9.980;2024-02-21T01:04:12;8.10;99.90
5429;DHT22;2737;52.386;9.980;2024-02-21T01:06:39;8.10;99.90
5429;DHT22;2737;52.386;9.980;2024-02-21T01:09:08;8.10;99.90
5429;DHT22;2737;52.386;9.980;2024-02-21T01:11:35;8.10;99.90
5429;DHT22;2737;52.386;9.980;2024-02-21T01:14:02;8.10;99.90
5429;DHT22;2737;52.386;9.980;2024-02-21T01:16:30;8.20;99.90
5429;DHT22;2737;52.386;9.980;2024-02-21T01:18:57;8.20;99.90
5429;DHT22;2737;52.386;9.980;2024-02-21T01:21:24;8.10;99.90
5429;DHT22;2737;52.386;9.980;2024-02-21T01:23:51;8.10;99.90
5429;DHT22;2737;52.386;9.980;2024-02-21T01:26:18;8.20;99.90
5429;DHT22;2737;52.386;9.980;2024-02-21T01:28:45;8.10;99.90
5429;DHT22;2737;52.386;9.980;2024-02-21T01:31:12;8.10;99.90
5429;DHT22;2737;52.386;9.980;2024-02-21T01:33:42;8.20;99.90
5429;DHT22;2737;52.386;9.980;2024-02-21T01:36:09;8.20;99.90
5429;DHT22;2737;52.386;9.980;2024-02-21T01:38:36;8.20;99.90
5429;DHT22;2737;52.386;9.980;2024-02-21T01:41:03;8.20;99.90
5429;DHT22;2737;52.386;9.980;2024-02-21T01:43:30;8.20;99.90
5429;DHT22;2737;52.386;9.980;2024-02-21T01:45:57;8.20;99.90
5429;DHT22;2737;52.386;9.980;2024-02-21T01:48:25;8.30;99.90
5429;DHT22;2737;52.386;9.980;2024-02-21T01:50:54;8.20;99.90
5429;DHT22;2737;52.386;9.980;2024-02-21T01:53:24;8.20;99.90
5429;DHT22;2737;52.386;9.980;2024-02-21T01:55:52;8.30;99.90
5429;DHT22;2737;52.386;9.980;2024-02-21T01:58:20;8.30;99.90
5429;DHT22;2737;52.386;9.980;2024-02-21T02:00:48;8.30;99.90
5429;DHT22;2737;52.386;9.980;2024-02-21T02:03:15;8.30;99.90
5429;DHT22;2737;52.386;9.980;2024-02-21T02:05:43;8.30;99.90
5429;DHT22;2737;52.386;9.980;2024-02-21T02:08:13;8.40;99.90
5429;DHT22;2737;52.386;9.980;2024-02-21T02:10:41;8.40;99.90
5429;DHT22;2737;52.386;9.980;2024-02-21T02:13:08;8.40;99.90
5429;DHT22;2737;52.386;9.980;2024-02-21T02:15:39;8.40;99.90
5429;DHT22;2737;52.386;9.980;2024-02-21T02:18:06;8.40;99.90
5429;DHT22;2737;52.386;9.980;2024-02-21T02:20:33;8.40;99.90
5429;DHT22;2737;52.386;9.980;2024-02-21T02:23:03;8.40;99.90
5429;DHT22;2737;52.386;9.980;2024-02-21T02:25:34;8.40;99.90
5429;DHT22;2737;52.386;9.980;2024-02-21T02:28:01;8.40;99.90
5429;DHT22;2737;52.386;9.980;2024-02-21T02:30:28;8.40;99.90
5429;DHT22;2737;52.386;9.980;2024-02-21T02:32:55;8.40;99.90
5429;DHT22;2737;52.386;9.980;2024-02-21T02:35:22;8.40;99.90
5429;DHT22;2737;52.386;9.980;2024-02-21T02:37:50;8.40;99.90
5429;DHT22;2737;52.386;9.980;2024-02-21T02:40:17;8.40;99.90
5429;DHT22;2737;52.386;9.980;2024-02-21T02:42:46;8.50;99.90
5429;DHT22;2737;52.386;9.980;2024-02-21T02:45:14;8.50;99.90
5429;DHT22;2737;52.386;9.980;2024-02-21T02:47:41;8.50;99.90
5429;DHT22;2737;52.386;9.980;2024-02-21T02:50:09;8.50;99.90
5429;DHT22;2737;52.386;9.980;2024-02-21T02:52:36;8.50;99.90
5429;DHT22;2737;52.386;9.980;2024-02-21T02:55:04;8.50;99.90
5429;DHT22;2737;52.386;9.980;2024-02-21T02:57:31;8.50;99.90
5429;DHT22;2737;52.386;9.980;2024-02-21T03:00:00;8.50;99.90
5429;DHT22;2737;52.386;9.980;2024-02-21T03:02:27;8.50;99.90
5429;DHT22;2737;52.386;9.980;2024-02-21T03:04:54;8.50;99.90
5429;DHT22;2737;52.386;9.980;2024-02-21T03:07:21;8.50;99.90
5429;DHT22;2737;52.386;9.980;2024-02-21T03:09:48;8.50;99.90
5429;DHT22;2737;52.386;9.980;2024-02-21T03:12:15;8.50;99.90
5429;DHT22;2737;52.386;9.980;2024-02-21T03:14:49;8.50;99.90
5429;DHT22;2737;52.386;9.980;2024-02-21T03:17:18;8.50;99.90
5429;DHT22;2737;52.386;9.980;2024-02-21T03:19:45;8.50;99.90
5429;DHT22;2737;52.386;9.980;2024-02-21T03:22:12;8.50;99.90
5429;DHT22;2737;52.386;9.980;2024-02-21T03:24:39;8.50;99.90
5429;DHT22;2737;52.386;9.980;2024-02-21T03:27:06;8.50;99.90
5429;DHT22;2737;52.386;9.980;2024-02-21T03:29:33;8.50;99.90
5429;DHT22;2737;52.386;9.980;2024-02-21T03:32:00;8.50;99.90
5429;DHT22;2737;52.386;9.980;2024-02-21T03:34:29;8.50;99.90
5429;DHT22;2737;52.386;9.980;2024-02-21T03:36:56;8.50;99.90
5429;DHT22;2737;52.386;9.980;2024-02-21T03:39:23;8.40;99.90
5429;DHT22;2737;52.386;9.980;2024-02-21T03:41:50;8.40;99.90
5429;DHT22;2737;52.386;9.980;2024-02-21T03:44:17;8.40;99.90
5429;DHT22;2737;52.386;9.980;2024-02-21T03:46:44;8.40;99.90
5429;DHT22;2737;52.386;9.980;2024-02-21T03:49:11;8.40;99.90
5429;DHT22;2737;52.386;9.980;2024-02-21T03:51:39;8.40;99.90
5429;DHT22;2737;52.386;9.980;2024-02-21T03:54:06;8.40;99.90
5429;DHT22;2737;52.386;9.980;2024-02-21T03:56:37;8.40;99.90
5429;DHT22;2737;52.386;9.980;2024-02-21T03:59:05;8.30;99.90
5429;DHT22;2737;52.386;9.980;2024-02-21T04:01:32;8.40;99.90
5429;DHT22;2737;52.386;9.980;2024-02-21T04:03:59;8.30;99.90
5429;DHT22;2737;52.386;9.980;2024-02-21T04:06:26;8.40;99.90
5429;DHT22;2737;52.386;9.980;2024-02-21T04:08:54;8.30;99.90
5429;DHT22;2737;52.386;9.980;2024-02-21T04:11:22;8.40;99.90
5429;DHT22;2737;52.386;9.980;2024-02-21T04:13:49;8.40;99.90
5429;DHT22;2737;52.386;9.980;2024-02-21T04:16:17;8.40;99.90
5429;DHT22;2737;52.386;9.980;2024-02-21T04:18:44;8.40;99.90
5429;DHT22;2737;52.386;9.980;2024-02-21T04:21:14;8.40;99.90
5429;DHT22;2737;52.386;9.980;2024-02-21T04:23:42;8.40;99.90
5429;DHT22;2737;52.386;9.980;2024-02-21T04:26:10;8.40;99.90
5429;DHT22;2737;52.386;9.980;2024-02-21T04:28:37;8.30;99.90
5429;DHT22;2737;52.386;9.980;2024-02-21T04:31:05;8.40;99.90
5429;DHT22;2737;52.386;9.980;2024-02-21T04:33:32;8.30;99.90
5429;DHT22;2737;52.386;9.980;2024-02-21T04:35:59;8.40;99.90
5429;DHT22;2737;52.386;9.980;2024-02-21T04:38:27;8.30;99.90
5429;DHT22;2737;52.386;9.980;2024-02-21T04:40:55;8.40;99.90
5429;DHT22;2737;52.386;9.980;2024-02-21T04:43:25;8.40;99.90
5429;DHT22;2737;52.386;9.980;2024-02-21T04:45:52;8.40;99.90
5429;DHT22;2737;52.386;9.980;2024-02-21T04:48:19;8.40;99.90
5429;DHT22;2737;52.386;9.980;2024-02-21T04:50:47;8.30;99.90
5429;DHT22;2737;52.386;9.980;2024-02-21T04:53:14;8.40;99.90
5429;DHT22;2737;52.386;9.980;2024-02-21T04:55:41;8.40;99.90
5429;DHT22;2737;52.386;9.980;2024-02-21T04:58:08;8.40;99.90
5429;DHT22;2737;52.386;9.980;2024-02-21T05:00:37;8.40;99.90
5429;DHT22;2737;52.386;9.980;2024-02-21T05:03:04;8.40;99.90
5429;DHT22;2737;52.386;9.980;2024-02-21T05:05:31;8.30;99.90
5429;DHT22;2737;52.386;9.980;2024-02-21T05:07:58;8.40;99.90
5429;DHT22;2737;52.386;9.980;2024-02-21T05:10:25;8.40;99.90
5429;DHT22;2737;52.386;9.980;2024-02-21T05:12:52;8.40;99.90
5429;DHT22;2737;52.386;9.980;2024-02-21T05:15:19;8.40;99.90
5429;DHT22;2737;52.386;9.980;2024-02-21T05:17:48;8.40;99.90
5429;DHT22;2737;52.386;9.980;2024-02-21T05:20:15;8.40;99.90
5429;DHT22;2737;52.386;9.980;2024-02-21T05:22:42;8.40;99.90
5429;DHT22;2737;52.386;9.980;2024-02-21T05:25:09;8.40;99.90
5429;DHT22;2737;52.386;9.980;2024-02-21T05:27:36;8.40;99.90
5429;DHT22;2737;52.386;9.980;2024-02-21T05:30:05;8.50;99.90
5429;DHT22;2737;52.386;9.980;2024-02-21T05:32:33;8.50;99.90
5429;DHT22;2737;52.386;9.980;2024-02-21T05:35:01;8.40;99.90
5429;DHT22;2737;52.386;9.980;2024-02-21T05:37:28;8.50;99.90
5429;DHT22;2737;52.386;9.980;2024-02-21T05:39:55;8.50;99.90
5429;DHT22;2737;52.386;9.980;2024-02-21T05:42:22;8.50;99.90
5429;DHT22;2737;52.386;9.980;2024-02-21T05:44:49;8.50;99.90
5429;DHT22;2737;52.386;9.980;2024-02-21T05:47:16;8.40;99.90
5429;DHT22;2737;52.386;9.980;2024-02-21T05:49:46;8.40;99.90
5429;DHT22;2737;52.386;9.980;2024-02-21T05:52:14;8.50;99.90
5429;DHT22;2737;52.386;9.980;2024-02-21T05:54:42;8.40;99.90
5429;DHT22;2737;52.386;9.980;2024-02-21T05:57:09;8.50;99.90
5429;DHT22;2737;52.386;9.980;2024-02-21T05:59:38;8.40;99.90
5429;DHT22;2737;52.386;9.980;2024-02-21T06:02:05;8.40;99.90
5429;DHT22;2737;52.386;9.980;2024-02-21T06:04:32;8.40;99.90
5429;DHT22;2737;52.386;9.980;2024-02-21T06:07:00;8.40;99.90
5429;DHT22;2737;52.386;9.980;2024-02-21T06:09:28;8.40;99.90
5429;DHT22;2737;52.386;9.980;2024-02-21T06:11:55;8.40;99.90
5429;DHT22;2737;52.386;9.980;2024-02-21T06:14:22;8.30;99.90
5429;DHT22;2737;52.386;9.980;2024-02-21T06:16:49;8.30;99.90
5429;DHT22;2737;52.386;9.980;2024-02-21T06:19:16;8.20;99.90
5429;DHT22;2737;52.386;9.980;2024-02-21T06:21:43;8.20;99.90
5429;DHT22;2737;52.386;9.980;2024-02-21T06:24:10;8.10;99.90
5429;DHT22;2737;52.386;9.980;2024-02-21T06:26:40;8.10;99.90
5429;DHT22;2737;52.386;9.980;2024-02-21T06:29:07;8.00;99.90
5429;DHT22;2737;52.386;9.980;2024-02-21T06:31:35;8.10;99.90
5429;DHT22;2737;52.386;9.980;2024-02-21T06:34:02;8.10;99.90
5429;DHT22;2737;52.386;9.980;2024-02-21T06:36:30;8.10;99.90
5429;DHT22;2737;52.386;9.980;2024-02-21T06:38:57;8.10;99.90
5429;DHT22;2737;52.386;9.980;2024-02-21T06:41:24;8.10;99.90
5429;DHT22;2737;52.386;9.980;2024-02-21T06:43:52;8.20;99.90
5429;DHT22;2737;52.386;9.980;2024-02-21T06:46:23;8.20;99.90
5429;DHT22;2737;52.386;9.980;2024-02-21T06:48:51;8.20;99.90
5429;DHT22;2737;52.386;9.980;2024-02-21T06:51:18;8.30;99.90
5429;DHT22;2737;52.386;9.980;2024-02-21T06:53:45;8.30;99.90
5429;DHT22;2737;52.386;9.980;2024-02-21T06:56:12;8.30;99.90
5429;DHT22;2737;52.386;9.980;2024-02-21T06:58:39;8.30;99.90
5429;DHT22;2737;52.386;9.980;2024-02-21T07:01:08;8.30;99.90
5429;DHT22;2737;52.386;9.980;2024-02-21T07:03:35;8.30;99.90
5429;DHT22;2737;52.386;9.980;2024-02-21T07:06:02;8.30;99.90
5429;DHT22;2737;52.386;9.980;2024-02-21T07:08:30;8.30;99.90
5429;DHT22;2737;52.386;9.980;2024-02-21T07:10:57;8.30;99.90
5429;DHT22;2737;52.386;9.980;2024-02-21T07:13:24;8.30;99.90
5429;DHT22;2737;52.386;9.980;2024-02-21T07:15:51;8.30;99.90
5429;DHT22;2737;52.386;9.980;2024-02-21T07:18:19;8.30;99.90
5429;DHT22;2737;52.386;9.980;2024-02-21T07:20:46;8.30;99.90
5429;DHT22;2737;52.386;9.980;2024-02-21T07:23:13;8.30;99.90
5429;DHT22;2737;52.386;9.980;2024-02-21T07:25:40;8.30;99.90
5429;DHT22;2737;52.386;9.980;2024-02-21T07:28:07;8.30;99.90
5429;DHT22;2737;52.386;9.980;2024-02-21T07:30:34;8.30;99.90
5429;DHT22;2737;52.386;9.980;2024-02-21T07:33:02;8.30;99.90
5429;DHT22;2737;52.386;9.980;2024-02-21T07:35:30;8.30;99.90
5429;DHT22;2737;52.386;9.980;2024-02-21T07:37:57;8.30;99.90
5429;DHT22;2737;52.386;9.980;2024-02-21T07:40:24;8.40;99.90
5429;DHT22;2737;52.386;9.980;2024-02-21T07:42:51;8.30;99.90
5429;DHT22;2737;52.386;9.980;2024-02-21T07:45:18;8.40;99.90
5429;DHT22;2737;52.386;9.980;2024-02-21T07:47:49;8.40;99.90
5429;DHT22;2737;52.386;9.980;2024-02-21T07:50:16;8.40;99.90
5429;DHT22;2737;52.386;9.980;2024-02-21T07:52:45;8.40;99.90
5429;DHT22;2737;52.386;9.980;2024-02-21T07:55:12;8.40;99.90
5429;DHT22;2737;52.386;9.980;2024-02-21T07:57:39;8.50;99.90
5429;DHT22;2737;52.386;9.980;2024-02-21T08:00:07;8.50;99.90
5429;DHT22;2737;52.386;9.980;2024-02-21T08:02:35;8.50;99.90
5429;DHT22;2737;52.386;9.980;2024-02-21T08:05:03;8.50;99.90
5429;DHT22;2737;52.386;9.980;2024-02-21T08:07:31;8.50;99.90
5429;DHT22;2737;52.386;9.980;2024-02-21T08:09:59;8.50;99.90
5429;DHT22;2737;52.386;9.980;2024-02-21T08:12:26;8.60;99.90
5429;DHT22;2737;52.386;9.980;2024-02-21T08:14:53;8.60;99.90
5429;DHT22;2737;52.386;9.980;2024-02-21T08:17:20;8.60;99.90
5429;DHT22;2737;52.386;9.980;2024-02-21T08:19:47;8.50;99.90
5429;DHT22;2737;52.386;9.980;2024-02-21T08:22:15;8.50;99.90
5429;DHT22;2737;52.386;9.980;2024-02-21T08:24:42;8.60;99.90
5429;DHT22;2737;52.386;9.980;2024-02-21T08:27:11;8.60;99.90
5429;DHT22;2737;52.386;9.980;2024-02-21T08:29:38;8.60;99.90
5429;DHT22;2737;52.386;9.980;2024-02-21T08:32:05;8.60;99.90
5429;DHT22;2737;52.386;9.980;2024-02-21T08:34:32;8.60;99.90
5429;DHT22;2737;52.386;9.980;2024-02-21T08:37:00;8.60;99.90
5429;DHT22;2737;52.386;9.980;2024-02-21T08:39:27;8.60;99.90
5429;DHT22;2737;52.386;9.980;2024-02-21T08:41:56;8.70;99.90
5429;DHT22;2737;52.386;9.980;2024-02-21T08:44:25;8.70;99.90
5429;DHT22;2737;52.386;9.980;2024-02-21T08:46:52;8.70;99.90
5429;DHT22;2737;52.386;9.980;2024-02-21T08:49:19;8.70;99.90
5429;DHT22;2737;52.386;9.980;2024-02-21T08:51:46;8.70;99.90
5429;DHT22;2737;52.386;9.980;2024-02-21T08:54:13;8.70;99.90
5429;DHT22;2737;52.386;9.980;2024-02-21T08:56:40;8.70;99.90
5429;DHT22;2737;52.386;9.980;2024-02-21T08:59:07;8.80;99.90
5429;DHT22;2737;52.386;9.980;2024-02-21T09:01:35;8.80;99.90
5429;DHT22;2737;52.386;9.980;2024-02-21T09:04:03;8.90;99.90
5429;DHT22;2737;52.386;9.980;2024-02-21T09:06:30;8.90;99.90
5429;DHT22;2737;52.386;9.980;2024-02-21T09:08:59;9.00;99.90
5429;DHT22;2737;52.386;9.980;2024-02-21T09:11:26;9.00;99.90
5429;DHT22;2737;52.386;9.980;2024-02-21T09:13:54;9.10;99.90
5429;DHT22;2737;52.386;9.980;2024-02-21T09:16:21;9.10;99.90
5429;DHT22;2737;52.386;9.980;2024-02-21T09:18:50;9.20;99.90
5429;DHT22;2737;52.386;9.980;2024-02-21T09:21:18;9.20;99.90
5429;DHT22;2737;52.386;9.980;2024-02-21T09:23:45;9.20;99.90
5429;DHT22;2737;52.386;9.980;2024-02-21T09:26:12;9.20;99.90
5429;DHT22;2737;52.386;9.980;2024-02-21T09:28:42;9.20;99.90
5429;DHT22;2737;52.386;9.980;2024-02-21T09:31:09;9.30;99.90
5429;DHT22;2737;52.386;9.980;2024-02-21T09:33:36;9.30;99.90
5429;DHT22;2737;52.386;9.980;2024-02-21T09:36:06;9.30;99.90
5429;DHT22;2737;52.386;9.980;2024-02-21T09:38:33;9.40;99.90
5429;DHT22;2737;52.386;9.980;2024-02-21T09:41:03;9.40;99.90
5429;DHT22;2737;52.386;9.980;2024-02-21T09:43:34;9.50;99.90
5429;DHT22;2737;52.386;9.980;2024-02-21T09:46:00;9.50;99.90
5429;DHT22;2737;52.386;9.980;2024-02-21T09:48:41;9.60;99.90
5429;DHT22;2737;52.386;9.980;2024-02-21T09:51:12;9.70;99.90
5429;DHT22;2737;52.386;9.980;2024-02-21T09:53:42;9.70;99.90
5429;DHT22;2737;52.386;9.980;2024-02-21T09:56:10;9.70;99.90
5429;DHT22;2737;52.386;9.980;2024-02-21T09:58:38;9.80;99.90
5429;DHT22;2737;52.386;9.980;2024-02-21T10:01:06;9.80;99.90
5429;DHT22;2737;52.386;9.980;2024-02-21T10:03:34;9.80;99.90
5429;DHT22;2737;52.386;9.980;2024-02-21T10:06:01;9.80;99.90
5429;DHT22;2737;52.386;9.980;2024-02-21T10:08:30;9.80;99.90
5429;DHT22;2737;52.386;9.980;2024-02-21T10:10:57;9.90;99.90
5429;DHT22;2737;52.386;9.980;2024-02-21T10:13:26;9.90;99.90
5429;DHT22;2737;52.386;9.980;2024-02-21T10:16:03;9.90;99.90
5429;DHT22;2737;52.386;9.980;2024-02-21T10:18:30;9.90;99.90
5429;DHT22;2737;52.386;9.980;2024-02-21T10:21:04;9.80;99.90
5429;DHT22;2737;52.386;9.980;2024-02-21T10:23:43;9.90;99.90
5429;DHT22;2737;52.386;9.980;2024-02-21T10:26:11;9.80;99.90
5429;DHT22;2737;52.386;9.980;2024-02-21T10:28:39;9.80;99.90
5429;DHT22;2737;52.386;9.980;2024-02-21T10:31:08;9.80;99.90
5429;DHT22;2737;52.386;9.980;2024-02-21T10:33:37;9.80;99.90
5429;DHT22;2737;52.386;9.980;2024-02-21T10:36:08;9.90;99.90
5429;DHT22;2737;52.386;9.980;2024-02-21T10:38:35;9.90;99.90
5429;DHT22;2737;52.386;9.980;2024-02-21T10:41:05;9.80;99.90
5429;DHT22;2737;52.386;9.980;2024-02-21T10:43:38;9.90;99.90
5429;DHT22;2737;52.386;9.980;2024-02-21T10:46:06;9.90;99.90
5429;DHT22;2737;52.386;9.980;2024-02-21T10:48:42;10.00;99.90
5429;DHT22;2737;52.386;9.980;2024-02-21T10:51:15;10.00;99.90
5429;DHT22;2737;52.386;9.980;2024-02-21T10:53:47;10.00;99.90
5429;DHT22;2737;52.386;9.980;2024-02-21T10:56:24;10.00;99.90
5429;DHT22;2737;52.386;9.980;2024-02-21T10:58:53;10.10;99.90
5429;DHT22;2737;52.386;9.980;2024-02-21T11:01:22;10.10;99.90
5429;DHT22;2737;52.386;9.980;2024-02-21T11:03:54;10.10;99.90
5429;DHT22;2737;52.386;9.980;2024-02-21T11:06:22;10.10;99.90
5429;DHT22;2737;52.386;9.980;2024-02-21T11:09:02;10.20;99.90
5429;DHT22;2737;52.386;9.980;2024-02-21T11:11:33;10.20;99.90
5429;DHT22;2737;52.386;9.980;2024-02-21T11:14:05;10.20;99.90
5429;DHT22;2737;52.386;9.980;2024-02-21T11:16:36;10.40;99.90
5429;DHT22;2737;52.386;9.980;2024-02-21T11:19:06;10.40;99.90
5429;DHT22;2737;52.386;9.980;2024-02-21T11:21:34;10.40;99.90
5429;DHT22;2737;52.386;9.980;2024-02-21T11:24:01;10.50;99.90
5429;DHT22;2737;52.386;9.980;2024-02-21T11:26:30;10.50;99.90
5429;DHT22;2737;52.386;9.980;2024-02-21T11:28:58;10.50;99.90
5429;DHT22;2737;52.386;9.980;2024-02-21T11:31:26;10.50;99.90
5429;DHT22;2737;52.386;9.980;2024-02-21T11:33:54;10.60;99.90
5429;DHT22;2737;52.386;9.980;2024-02-21T11:36:25;10.70;99.90
5429;DHT22;2737;52.386;9.980;2024-02-21T11:38:53;10.60;99.90
5429;DHT22;2737;52.386;9.980;2024-02-21T11:41:20;10.70;99.90
5429;DHT22;2737;52.386;9.980;2024-02-21T11:43:49;10.70;99.90
5429;DHT22;2737;52.386;9.980;2024-02-21T11:46:17;10.70;99.90
5429;DHT22;2737;52.386;9.980;2024-02-21T11:48:45;10.80;99.90
5429;DHT22;2737;52.386;9.980;2024-02-21T11:51:21;10.80;99.90
5429;DHT22;2737;52.386;9.980;2024-02-21T11:53:50;10.80;99.90
5429;DHT22;2737;52.386;9.980;2024-02-21T11:56:18;10.90;99.90
5429;DHT22;2737;52.386;9.980;2024-02-21T11:58:46;10.80;99.90
5429;DHT22;2737;52.386;9.980;2024-02-21T12:01:14;10.80;99.90
5429;DHT22;2737;52.386;9.980;2024-02-21T12:03:42;10.70;99.90
5429;DHT22;2737;52.386;9.980;2024-02-21T12:06:16;10.70;99.90
5429;DHT22;2737;52.386;9.980;2024-02-21T12:08:45;10.70;99.90
5429;DHT22;2737;52.386;9.980;2024-02-21T12:11:17;10.70;99.90
5429;DHT22;2737;52.386;9.980;2024-02-21T12:13:45;10.70;99.90
5429;DHT22;2737;52.386;9.980;2024-02-21T12:16:16;10.70;99.90
5429;DHT22;2737;52.386;9.980;2024-02-21T12:18:45;10.80;99.90
5429;DHT22;2737;52.386;9.980;2024-02-21T12:21:12;10.80;99.90
5429;DHT22;2737;52.386;9.980;2024-02-21T12:23:39;10.80;99.90
5429;DHT22;2737;52.386;9.980;2024-02-21T12:26:06;10.80;99.90
5429;DHT22;2737;52.386;9.980;2024-02-21T12:28:33;10.80;99.90
5429;DHT22;2737;52.386;9.980;2024-02-21T12:31:00;10.80;99.90
5429;DHT22;2737;52.386;9.980;2024-02-21T12:33:31;10.80;99.90
5429;DHT22;2737;52.386;9.980;2024-02-21T12:35:58;10.90;99.90
5429;DHT22;2737;52.386;9.980;2024-02-21T12:38:25;10.90;99.90
5429;DHT22;2737;52.386;9.980;2024-02-21T12:40:52;10.80;99.90
5429;DHT22;2737;52.386;9.980;2024-02-21T12:43:19;10.70;99.90
5429;DHT22;2737;52.386;9.980;2024-02-21T12:45:48;10.70;99.90
5429;DHT22;2737;52.386;9.980;2024-02-21T12:48:15;10.80;99.90
5429;DHT22;2737;52.386;9.980;2024-02-21T12:50:48;10.90;99.90
5429;DHT22;2737;52.386;9.980;2024-02-21T12:53:16;10.90;99.90
5429;DHT22;2737;52.386;9.980;2024-02-21T12:55:45;10.90;99.90
5429;DHT22;2737;52.386;9.980;2024-02-21T12:58:12;11.00;99.90
5429;DHT22;2737;52.386;9.980;2024-02-21T13:00:40;11.00;99.90
5429;DHT22;2737;52.386;9.980;2024-02-21T13:03:07;10.90;99.90
5429;DHT22;2737;52.386;9.980;2024-02-21T13:05:35;10.90;99.90
5429;DHT22;2737;52.386;9.980;2024-02-21T13:08:04;10.90;99.90
5429;DHT22;2737;52.386;9.980;2024-02-21T13:10:31;10.90;99.90
5429;DHT22;2737;52.386;9.980;2024-02-21T13:12:59;11.00;99.90
5429;DHT22;2737;52.386;9.980;2024-02-21T13:15:26;11.00;99.90
5429;DHT22;2737;52.386;9.980;2024-02-21T13:17:53;11.00;99.90
5429;DHT22;2737;52.386;9.980;2024-02-21T13:20:20;11.00;99.90
5429;DHT22;2737;52.386;9.980;2024-02-21T13:22:47;10.90;99.90
5429;DHT22;2737;52.386;9.980;2024-02-21T13:25:16;11.00;99.90
5429;DHT22;2737;52.386;9.980;2024-02-21T13:27:46;11.00;99.90
5429;DHT22;2737;52.386;9.980;2024-02-21T13:30:13;10.90;99.90
5429;DHT22;2737;52.386;9.980;2024-02-21T13:32:41;10.90;99.90
5429;DHT22;2737;52.386;9.980;2024-02-21T13:35:09;10.90;99.90
5429;DHT22;2737;52.386;9.980;2024-02-21T13:37:37;10.90;99.90
5429;DHT22;2737;52.386;9.980;2024-02-21T13:40:05;10.90;99.90
5429;DHT22;2737;52.386;9.980;2024-02-21T13:42:33;10.90;99.90
5429;DHT22;2737;52.386;9.980;2024-02-21T13:45:00;10.90;99.90
5429;DHT22;2737;52.386;9.980;2024-02-21T13:47:28;10.90;99.90
5429;DHT22;2737;52.386;9.980;2024-02-21T13:49:55;10.90;99.90
5429;DHT22;2737;52.386;9.980;2024-02-21T13:52:22;10.90;99.90
5429;DHT22;2737;52.386;9.980;2024-02-21T13:54:52;10.90;99.90
5429;DHT22;2737;52.386;9.980;2024-02-21T13:57:19;10.90;99.90
5429;DHT22;2737;52.386;9.980;2024-02-21T13:59:48;10.90;99.90
5429;DHT22;2737;52.386;9.980;2024-02-21T14:02:16;10.90;99.90
5429;DHT22;2737;52.386;9.980;2024-02-21T14:04:43;11.10;99.90
5429;DHT22;2737;52.386;9.980;2024-02-21T14:07:10;11.00;99.90
5429;DHT22;2737;52.386;9.980;2024-02-21T14:09:37;11.10;99.90
5429;DHT22;2737;52.386;9.980;2024-02-21T14:12:05;11.10;99.90
5429;DHT22;2737;52.386;9.980;2024-02-21T14:14:34;11.10;99.90
5429;DHT22;2737;52.386;9.980;2024-02-21T14:17:03;11.10;99.90
5429;DHT22;2737;52.386;9.980;2024-02-21T14:19:30;11.20;99.90
5429;DHT22;2737;52.386;9.980;2024-02-21T14:21:57;11.20;99.90
5429;DHT22;2737;52.386;9.980;2024-02-21T14:24:24;11.00;99.90
5429;DHT22;2737;52.386;9.980;2024-02-21T14:26:53;11.10;99.90
5429;DHT22;2737;52.386;9.980;2024-02-21T14:29:20;11.00;99.90
5429;DHT22;2737;52.386;9.980;2024-02-21T14:31:47;11.00;99.90
5429;DHT22;2737;52.386;9.980;2024-02-21T14:34:16;11.00;99.90
5429;DHT22;2737;52.386;9.980;2024-02-21T14:36:43;11.00;99.90
5429;DHT22;2737;52.386;9.980;2024-02-21T14:39:10;11.00;99.90
5429;DHT22;2737;52.386;9.980;2024-02-21T14:41:37;11.00;99.90
5429;DHT22;2737;52.386;9.980;2024-02-21T14:44:05;10.90;99.90
5429;DHT22;2737;52.386;9.980;2024-02-21T14:46:36;10.90;99.90
5429;DHT22;2737;52.386;9.980;2024-02-21T14:49:03;10.90;99.90
5429;DHT22;2737;52.386;9.980;2024-02-21T14:51:32;10.90;99.90
5429;DHT22;2737;52.386;9.980;2024-02-21T14:53:59;10.90;99.90
5429;DHT22;2737;52.386;9.980;2024-02-21T14:56:26;10.90;99.90
5429;DHT22;2737;52.386;9.980;2024-02-21T14:58:53;11.00;99.90
5429;DHT22;2737;52.386;9.980;2024-02-21T15:01:20;10.90;99.90
5429;DHT22;2737;52.386;9.980;2024-02-21T15:03:47;10.90;99.90
5429;DHT22;2737;52.386;9.980;2024-02-21T15:06:14;10.80;99.90
5429;DHT22;2737;52.386;9.980;2024-02-21T15:08:42;10.80;99.90
5429;DHT22;2737;52.386;9.980;2024-02-21T15:11:10;10.80;99.90
5429;DHT22;2737;52.386;9.980;2024-02-21T15:13:37;10.80;99.90
5429;DHT22;2737;52.386;9.980;2024-02-21T15:16:04;10.80;99.90
5429;DHT22;2737;52.386;9.980;2024-02-21T15:18:31;10.80;99.90
5429;DHT22;2737;52.386;9.980;2024-02-21T15:20:59;10.80;99.90
5429;DHT22;2737;52.386;9.980;2024-02-21T15:23:26;10.70;99.90
5429;DHT22;2737;52.386;9.980;2024-02-21T15:25:55;10.80;99.90
5429;DHT22;2737;52.386;9.980;2024-02-21T15:28:22;10.80;99.90
5429;DHT22;2737;52.386;9.980;2024-02-21T15:30:49;10.80;99.90
5429;DHT22;2737;52.386;9.980;2024-02-21T15:33:16;10.80;99.90
5429;DHT22;2737;52.386;9.980;2024-02-21T15:35:43;10.80;99.90
5429;DHT22;2737;52.386;9.980;2024-02-21T15:38:10;10.80;99.90
5429;DHT22;2737;52.386;9.980;2024-02-21T15:40:37;10.80;99.90
5429;DHT22;2737;52.386;9.980;2024-02-21T15:43:05;10.70;99.90
5429;DHT22;2737;52.386;9.980;2024-02-21T15:45:33;10.70;99.90
5429;DHT22;2737;52.386;9.980;2024-02-21T15:48:00;10.70;99.90
5429;DHT22;2737;52.386;9.980;2024-02-21T15:50:29;10.60;99.90
5429;DHT22;2737;52.386;9.980;2024-02-21T15:52:56;10.50;99.90
5429;DHT22;2737;52.386;9.980;2024-02-21T15:55:23;10.50;99.90
5429;DHT22;2737;52.386;9.980;2024-02-21T15:57:50;10.40;99.90
5429;DHT22;2737;52.386;9.980;2024-02-21T16:00:19;10.40;99.90
5429;DHT22;2737;52.386;9.980;2024-02-21T16:02:47;10.20;99.90
5429;DHT22;2737;52.386;9.980;2024-02-21T16:05:14;10.00;99.90
5429;DHT22;2737;52.386;9.980;2024-02-21T16:07:42;9.90;99.90
5429;DHT22;2737;52.386;9.980;2024-02-21T16:10:09;9.90;99.90
5429;DHT22;2737;52.386;9.980;2024-02-21T16:12:36;9.80;99.90
5429;DHT22;2737;52.386;9.980;2024-02-21T16:15:07;9.80;99.90